Aviation Digital Data Service (ADDS)

Output produced by METARs form (2145 UTC 31 August 2015)
found at http://aviationweather.gov/adds/metars/
 
KAGC 311730Z 3118/0118 27004KT P6SM BKN035 
     FM010900 00000KT 4SM BR SKC 
     FM011400 26004KT P6SM SCT035